sensor_id;sensor_type;location;lat;lon;timestamp;temperature;humidity
9385;DHT22;4732;49.340;10.886;2024-03-22T04:05:18;2.40;99.90
9385;DHT22;4732;49.340;10.886;2024-03-22T04:08:18;2.50;99.90
9385;DHT22;4732;49.340;10.886;2024-03-22T04:14:20;3.00;99.90
9385;DHT22;4732;49.340;10.886;2024-03-22T04:17:19;2.40;99.90
9385;DHT22;4732;49.340;10.886;2024-03-22T07:29:59;5.70;99.90
9385;DHT22;4732;49.340;10.886;2024-03-22T07:32:30;5.90;99.90
9385;DHT22;4732;49.340;10.886;2024-03-22T07:34:57;6.30;99.90
9385;DHT22;4732;49.340;10.886;2024-03-22T07:37:26;6.60;99.90
9385;DHT22;4732;49.340;10.886;2024-03-22T07:39:54;7.70;99.90
9385;DHT22;4732;49.340;10.886;2024-03-22T07:42:19;6.30;99.90
9385;DHT22;4732;49.340;10.886;2024-03-22T07:44:46;6.40;99.90
9385;DHT22;4732;49.340;10.886;2024-03-22T07:47:25;6.50;99.90
9385;DHT22;4732;49.340;10.886;2024-03-22T07:49:51;6.70;99.90
9385;DHT22;4732;49.340;10.886;2024-03-22T07:52:17;7.10;99.90
9385;DHT22;4732;49.340;10.886;2024-03-22T07:54:42;6.80;99.90
9385;DHT22;4732;49.340;10.886;2024-03-22T07:57:08;7.10;99.90
9385;DHT22;4732;49.340;10.886;2024-03-22T07:59:36;7.00;99.90
9385;DHT22;4732;49.340;10.886;2024-03-22T08:02:02;7.10;99.90
9385;DHT22;4732;49.340;10.886;2024-03-22T08:04:28;7.30;99.90
9385;DHT22;4732;49.340;10.886;2024-03-22T08:06:54;7.40;99.90
9385;DHT22;4732;49.340;10.886;2024-03-22T08:09:19;7.50;99.90
9385;DHT22;4732;49.340;10.886;2024-03-22T08:11:45;7.20;99.90
9385;DHT22;4732;49.340;10.886;2024-03-22T08:14:11;7.70;99.90
9385;DHT22;4732;49.340;10.886;2024-03-22T08:16:36;7.90;99.90
9385;DHT22;4732;49.340;10.886;2024-03-22T08:19:02;8.00;99.90
9385;DHT22;4732;49.340;10.886;2024-03-22T08:21:27;8.10;99.90
9385;DHT22;4732;49.340;10.886;2024-03-22T08:23:53;8.30;99.90
9385;DHT22;4732;49.340;10.886;2024-03-22T08:26:19;8.20;99.90
9385;DHT22;4732;49.340;10.886;2024-03-22T08:28:48;8.30;99.90
9385;DHT22;4732;49.340;10.886;2024-03-22T08:31:14;8.70;99.90
9385;DHT22;4732;49.340;10.886;2024-03-22T08:33:39;8.60;99.90
9385;DHT22;4732;49.340;10.886;2024-03-22T08:36:06;8.90;99.90
9385;DHT22;4732;49.340;10.886;2024-03-22T08:38:31;9.10;99.90
9385;DHT22;4732;49.340;10.886;2024-03-22T08:40:57;9.00;99.90
9385;DHT22;4732;49.340;10.886;2024-03-22T08:43:22;9.40;99.90
9385;DHT22;4732;49.340;10.886;2024-03-22T08:45:51;9.50;99.90
9385;DHT22;4732;49.340;10.886;2024-03-22T08:48:16;9.50;99.90
9385;DHT22;4732;49.340;10.886;2024-03-22T08:53:08;9.90;99.90
9385;DHT22;4732;49.340;10.886;2024-03-22T08:55:34;10.10;99.90
9385;DHT22;4732;49.340;10.886;2024-03-22T08:57:59;10.30;99.90
9385;DHT22;4732;49.340;10.886;2024-03-22T09:00:25;10.70;99.90
9385;DHT22;4732;49.340;10.886;2024-03-22T09:02:52;11.00;99.90
9385;DHT22;4732;49.340;10.886;2024-03-22T09:05:17;11.20;99.90
9385;DHT22;4732;49.340;10.886;2024-03-22T09:07:44;11.60;99.90
9385;DHT22;4732;49.340;10.886;2024-03-22T09:12:35;12.10;99.90
9385;DHT22;4732;49.340;10.886;2024-03-22T09:15:01;12.30;99.90
9385;DHT22;4732;49.340;10.886;2024-03-22T09:17:27;12.50;99.90
9385;DHT22;4732;49.340;10.886;2024-03-22T09:19:52;12.70;99.90
9385;DHT22;4732;49.340;10.886;2024-03-22T09:22:18;12.90;99.90
9385;DHT22;4732;49.340;10.886;2024-03-22T09:24:43;13.00;99.90
9385;DHT22;4732;49.340;10.886;2024-03-22T09:27:09;13.10;99.90
9385;DHT22;4732;49.340;10.886;2024-03-22T09:29:36;13.20;99.90
9385;DHT22;4732;49.340;10.886;2024-03-22T09:32:02;13.40;99.90
9385;DHT22;4732;49.340;10.886;2024-03-22T09:34:27;13.50;99.90
9385;DHT22;4732;49.340;10.886;2024-03-22T09:36:55;13.70;99.90
9385;DHT22;4732;49.340;10.886;2024-03-22T09:39:22;13.80;99.90
9385;DHT22;4732;49.340;10.886;2024-03-22T09:41:48;13.90;99.90
9385;DHT22;4732;49.340;10.886;2024-03-22T09:44:18;13.90;99.90
9385;DHT22;4732;49.340;10.886;2024-03-22T09:46:45;14.00;99.90
9385;DHT22;4732;49.340;10.886;2024-03-22T09:49:12;14.20;99.90
9385;DHT22;4732;49.340;10.886;2024-03-22T09:51:39;14.30;99.90
9385;DHT22;4732;49.340;10.886;2024-03-22T09:54:04;14.30;99.90
9385;DHT22;4732;49.340;10.886;2024-03-22T09:56:31;14.50;99.90
9385;DHT22;4732;49.340;10.886;2024-03-22T09:58:57;14.50;99.90
9385;DHT22;4732;49.340;10.886;2024-03-22T10:01:24;14.70;99.90
9385;DHT22;4732;49.340;10.886;2024-03-22T10:03:51;14.80;99.90
9385;DHT22;4732;49.340;10.886;2024-03-22T10:06:18;14.90;99.90
9385;DHT22;4732;49.340;10.886;2024-03-22T10:08:44;15.20;99.90
9385;DHT22;4732;49.340;10.886;2024-03-22T10:11:10;15.30;99.90
9385;DHT22;4732;49.340;10.886;2024-03-22T10:13:35;15.40;99.90
9385;DHT22;4732;49.340;10.886;2024-03-22T10:16:01;15.50;99.90
9385;DHT22;4732;49.340;10.886;2024-03-22T10:18:27;15.50;99.90
9385;DHT22;4732;49.340;10.886;2024-03-22T10:21:03;15.60;99.90
9385;DHT22;4732;49.340;10.886;2024-03-22T10:23:30;15.70;99.90
9385;DHT22;4732;49.340;10.886;2024-03-22T10:25:57;15.60;99.90
9385;DHT22;4732;49.340;10.886;2024-03-22T10:28:24;15.60;99.90
9385;DHT22;4732;49.340;10.886;2024-03-22T10:30:52;15.60;99.90
9385;DHT22;4732;49.340;10.886;2024-03-22T10:33:19;15.40;99.90
9385;DHT22;4732;49.340;10.886;2024-03-22T10:35:46;15.30;99.90
9385;DHT22;4732;49.340;10.886;2024-03-22T10:38:12;15.30;99.90
9385;DHT22;4732;49.340;10.886;2024-03-22T10:40:39;15.10;99.90
9385;DHT22;4732;49.340;10.886;2024-03-22T10:43:05;15.20;99.90
9385;DHT22;4732;49.340;10.886;2024-03-22T10:45:32;15.20;99.90
9385;DHT22;4732;49.340;10.886;2024-03-22T10:47:58;15.20;99.90
9385;DHT22;4732;49.340;10.886;2024-03-22T10:50:28;15.30;99.90
9385;DHT22;4732;49.340;10.886;2024-03-22T10:52:58;15.40;99.90
9385;DHT22;4732;49.340;10.886;2024-03-22T10:55:31;15.50;99.90
9385;DHT22;4732;49.340;10.886;2024-03-22T10:57:58;15.50;99.90
9385;DHT22;4732;49.340;10.886;2024-03-22T11:00:28;15.50;99.90
9385;DHT22;4732;49.340;10.886;2024-03-22T11:02:54;15.50;99.90
9385;DHT22;4732;49.340;10.886;2024-03-22T11:05:19;15.50;99.90
9385;DHT22;4732;49.340;10.886;2024-03-22T11:07:45;15.50;99.90
9385;DHT22;4732;49.340;10.886;2024-03-22T11:10:14;15.50;99.90
9385;DHT22;4732;49.340;10.886;2024-03-22T11:12:40;15.50;99.90
9385;DHT22;4732;49.340;10.886;2024-03-22T11:15:07;15.80;99.90
9385;DHT22;4732;49.340;10.886;2024-03-22T11:17:32;16.00;99.90
9385;DHT22;4732;49.340;10.886;2024-03-22T11:19:58;15.90;99.90
9385;DHT22;4732;49.340;10.886;2024-03-22T11:22:25;16.40;99.90
9385;DHT22;4732;49.340;10.886;2024-03-22T11:24:52;16.60;99.90
9385;DHT22;4732;49.340;10.886;2024-03-22T11:27:17;16.70;99.90
9385;DHT22;4732;49.340;10.886;2024-03-22T11:29:44;17.10;99.90
9385;DHT22;4732;49.340;10.886;2024-03-22T11:32:12;17.20;99.90
9385;DHT22;4732;49.340;10.886;2024-03-22T11:34:38;17.30;99.90
9385;DHT22;4732;49.340;10.886;2024-03-22T11:37:05;17.70;99.90
9385;DHT22;4732;49.340;10.886;2024-03-22T11:39:32;17.50;99.90
9385;DHT22;4732;49.340;10.886;2024-03-22T11:42:00;17.70;99.90
9385;DHT22;4732;49.340;10.886;2024-03-22T11:44:26;17.70;99.90
9385;DHT22;4732;49.340;10.886;2024-03-22T11:46:52;17.70;99.90
9385;DHT22;4732;49.340;10.886;2024-03-22T11:49:18;17.60;99.90
9385;DHT22;4732;49.340;10.886;2024-03-22T11:51:45;17.80;99.90
9385;DHT22;4732;49.340;10.886;2024-03-22T11:54:10;17.80;99.90
9385;DHT22;4732;49.340;10.886;2024-03-22T11:56:36;17.50;99.90
9385;DHT22;4732;49.340;10.886;2024-03-22T11:59:02;17.70;99.90
9385;DHT22;4732;49.340;10.886;2024-03-22T12:01:29;17.80;99.90
9385;DHT22;4732;49.340;10.886;2024-03-22T12:03:55;17.70;99.90
9385;DHT22;4732;49.340;10.886;2024-03-22T12:06:21;18.20;99.90
9385;DHT22;4732;49.340;10.886;2024-03-22T12:08:47;18.20;99.90
9385;DHT22;4732;49.340;10.886;2024-03-22T12:11:13;18.10;99.90
9385;DHT22;4732;49.340;10.886;2024-03-22T12:13:39;18.10;99.90
9385;DHT22;4732;49.340;10.886;2024-03-22T12:16:05;18.10;99.90
9385;DHT22;4732;49.340;10.886;2024-03-22T12:18:31;18.00;99.90
9385;DHT22;4732;49.340;10.886;2024-03-22T12:20:57;17.90;99.90
9385;DHT22;4732;49.340;10.886;2024-03-22T12:23:22;17.80;99.90
9385;DHT22;4732;49.340;10.886;2024-03-22T12:25:49;17.80;99.90
9385;DHT22;4732;49.340;10.886;2024-03-22T12:28:15;17.60;99.90
9385;DHT22;4732;49.340;10.886;2024-03-22T12:30:41;17.70;99.90
9385;DHT22;4732;49.340;10.886;2024-03-22T12:33:07;17.60;99.90
9385;DHT22;4732;49.340;10.886;2024-03-22T12:35:36;17.30;99.90
9385;DHT22;4732;49.340;10.886;2024-03-22T12:38:02;17.00;99.90
9385;DHT22;4732;49.340;10.886;2024-03-22T12:40:29;16.80;99.90
9385;DHT22;4732;49.340;10.886;2024-03-22T12:42:55;16.80;99.90
9385;DHT22;4732;49.340;10.886;2024-03-22T12:45:20;16.70;99.90
9385;DHT22;4732;49.340;10.886;2024-03-22T12:47:46;16.50;99.90
9385;DHT22;4732;49.340;10.886;2024-03-22T12:50:11;16.50;99.90
9385;DHT22;4732;49.340;10.886;2024-03-22T12:52:40;16.40;99.90
9385;DHT22;4732;49.340;10.886;2024-03-22T12:55:06;16.50;99.90
9385;DHT22;4732;49.340;10.886;2024-03-22T12:57:32;16.80;99.90
9385;DHT22;4732;49.340;10.886;2024-03-22T12:59:58;16.90;99.90
9385;DHT22;4732;49.340;10.886;2024-03-22T13:02:24;17.00;99.90
9385;DHT22;4732;49.340;10.886;2024-03-22T13:04:51;17.10;99.90
9385;DHT22;4732;49.340;10.886;2024-03-22T13:07:19;17.20;99.90
9385;DHT22;4732;49.340;10.886;2024-03-22T13:09:44;17.10;99.90
9385;DHT22;4732;49.340;10.886;2024-03-22T13:12:10;17.10;99.90
9385;DHT22;4732;49.340;10.886;2024-03-22T13:14:35;17.00;99.90
9385;DHT22;4732;49.340;10.886;2024-03-22T13:17:01;17.00;99.90
9385;DHT22;4732;49.340;10.886;2024-03-22T13:19:27;17.20;99.90
9385;DHT22;4732;49.340;10.886;2024-03-22T13:21:52;17.40;99.90
9385;DHT22;4732;49.340;10.886;2024-03-22T13:24:18;17.50;99.90
9385;DHT22;4732;49.340;10.886;2024-03-22T13:26:44;17.80;99.90
9385;DHT22;4732;49.340;10.886;2024-03-22T13:29:10;18.10;99.90
9385;DHT22;4732;49.340;10.886;2024-03-22T13:31:35;18.20;99.90
9385;DHT22;4732;49.340;10.886;2024-03-22T13:34:01;18.30;99.90
9385;DHT22;4732;49.340;10.886;2024-03-22T13:36:27;17.90;99.90
9385;DHT22;4732;49.340;10.886;2024-03-22T13:38:53;17.70;99.90
9385;DHT22;4732;49.340;10.886;2024-03-22T13:41:18;17.80;99.90
9385;DHT22;4732;49.340;10.886;2024-03-22T13:43:44;17.70;99.90
9385;DHT22;4732;49.340;10.886;2024-03-22T13:46:10;17.70;99.90
9385;DHT22;4732;49.340;10.886;2024-03-22T13:48:42;17.60;99.90
9385;DHT22;4732;49.340;10.886;2024-03-22T13:51:08;17.70;99.90
9385;DHT22;4732;49.340;10.886;2024-03-22T13:53:34;17.60;99.90
9385;DHT22;4732;49.340;10.886;2024-03-22T13:55:59;17.70;99.90
9385;DHT22;4732;49.340;10.886;2024-03-22T13:58:26;17.80;99.90
9385;DHT22;4732;49.340;10.886;2024-03-22T14:00:52;17.90;99.90
9385;DHT22;4732;49.340;10.886;2024-03-22T14:03:18;17.90;99.90
9385;DHT22;4732;49.340;10.886;2024-03-22T14:05:43;17.80;99.90
9385;DHT22;4732;49.340;10.886;2024-03-22T14:08:09;17.70;99.90
9385;DHT22;4732;49.340;10.886;2024-03-22T14:10:34;17.60;99.90
9385;DHT22;4732;49.340;10.886;2024-03-22T14:13:00;17.70;99.90
9385;DHT22;4732;49.340;10.886;2024-03-22T14:15:26;17.70;99.90
9385;DHT22;4732;49.340;10.886;2024-03-22T14:17:56;17.80;99.90
9385;DHT22;4732;49.340;10.886;2024-03-22T14:20:22;17.80;99.90
9385;DHT22;4732;49.340;10.886;2024-03-22T14:22:48;17.70;99.90
9385;DHT22;4732;49.340;10.886;2024-03-22T14:25:14;17.70;99.90
9385;DHT22;4732;49.340;10.886;2024-03-22T14:27:39;17.60;99.90
9385;DHT22;4732;49.340;10.886;2024-03-22T14:30:07;17.60;99.90
9385;DHT22;4732;49.340;10.886;2024-03-22T14:32:35;17.60;99.90
9385;DHT22;4732;49.340;10.886;2024-03-22T14:35:00;17.60;99.90
9385;DHT22;4732;49.340;10.886;2024-03-22T14:37:26;17.70;99.90
9385;DHT22;4732;49.340;10.886;2024-03-22T14:39:52;17.60;99.90
9385;DHT22;4732;49.340;10.886;2024-03-22T14:42:17;17.50;99.90
9385;DHT22;4732;49.340;10.886;2024-03-22T14:44:43;17.40;99.90
9385;DHT22;4732;49.340;10.886;2024-03-22T14:47:09;17.30;99.90
9385;DHT22;4732;49.340;10.886;2024-03-22T14:49:35;17.10;99.90
9385;DHT22;4732;49.340;10.886;2024-03-22T14:52:00;17.10;99.90
9385;DHT22;4732;49.340;10.886;2024-03-22T14:54:26;17.00;99.90
9385;DHT22;4732;49.340;10.886;2024-03-22T14:56:51;16.90;99.90
9385;DHT22;4732;49.340;10.886;2024-03-22T14:59:19;16.80;99.90
9385;DHT22;4732;49.340;10.886;2024-03-22T15:01:45;16.70;99.90
9385;DHT22;4732;49.340;10.886;2024-03-22T15:04:11;16.70;99.90
9385;DHT22;4732;49.340;10.886;2024-03-22T15:06:36;16.70;99.90
9385;DHT22;4732;49.340;10.886;2024-03-22T15:09:02;16.70;99.90
9385;DHT22;4732;49.340;10.886;2024-03-22T15:11:34;16.80;99.90
9385;DHT22;4732;49.340;10.886;2024-03-22T15:14:00;16.80;99.90
9385;DHT22;4732;49.340;10.886;2024-03-22T15:16:26;16.80;99.90
9385;DHT22;4732;49.340;10.886;2024-03-22T15:18:51;16.80;99.90
9385;DHT22;4732;49.340;10.886;2024-03-22T15:21:17;16.70;99.90
9385;DHT22;4732;49.340;10.886;2024-03-22T15:23:42;16.60;99.90
9385;DHT22;4732;49.340;10.886;2024-03-22T15:26:08;16.50;99.90
9385;DHT22;4732;49.340;10.886;2024-03-22T15:28:33;16.50;99.90
9385;DHT22;4732;49.340;10.886;2024-03-22T15:30:59;16.50;99.90
9385;DHT22;4732;49.340;10.886;2024-03-22T15:33:25;16.40;99.90
9385;DHT22;4732;49.340;10.886;2024-03-22T15:35:51;16.30;99.90
9385;DHT22;4732;49.340;10.886;2024-03-22T15:38:17;16.30;99.90
9385;DHT22;4732;49.340;10.886;2024-03-22T15:40:43;16.20;99.90
9385;DHT22;4732;49.340;10.886;2024-03-22T15:43:09;16.10;99.90
9385;DHT22;4732;49.340;10.886;2024-03-22T15:45:36;16.10;99.90
9385;DHT22;4732;49.340;10.886;2024-03-22T15:48:05;16.00;99.90
9385;DHT22;4732;49.340;10.886;2024-03-22T15:50:35;16.00;99.90
9385;DHT22;4732;49.340;10.886;2024-03-22T15:53:01;16.00;99.90
9385;DHT22;4732;49.340;10.886;2024-03-22T15:55:26;16.00;99.90
9385;DHT22;4732;49.340;10.886;2024-03-22T15:57:52;15.90;99.90
9385;DHT22;4732;49.340;10.886;2024-03-22T16:00:21;15.80;99.90
9385;DHT22;4732;49.340;10.886;2024-03-22T16:02:47;15.70;99.90
9385;DHT22;4732;49.340;10.886;2024-03-22T16:05:17;15.60;99.90
9385;DHT22;4732;49.340;10.886;2024-03-22T16:07:46;15.50;99.90
9385;DHT22;4732;49.340;10.886;2024-03-22T16:10:15;15.40;99.90
9385;DHT22;4732;49.340;10.886;2024-03-22T16:12:40;15.40;99.90
9385;DHT22;4732;49.340;10.886;2024-03-22T16:15:06;15.30;99.90
9385;DHT22;4732;49.340;10.886;2024-03-22T16:17:32;15.30;99.90
9385;DHT22;4732;49.340;10.886;2024-03-22T16:19:58;15.30;99.90
9385;DHT22;4732;49.340;10.886;2024-03-22T16:22:23;15.40;99.90
9385;DHT22;4732;49.340;10.886;2024-03-22T16:24:50;15.40;99.90
9385;DHT22;4732;49.340;10.886;2024-03-22T16:27:16;15.40;99.90
9385;DHT22;4732;49.340;10.886;2024-03-22T16:29:41;15.40;99.90
9385;DHT22;4732;49.340;10.886;2024-03-22T16:32:07;15.40;99.90
9385;DHT22;4732;49.340;10.886;2024-03-22T16:34:35;15.40;99.90
9385;DHT22;4732;49.340;10.886;2024-03-22T16:37:00;15.30;99.90
9385;DHT22;4732;49.340;10.886;2024-03-22T16:39:26;15.30;99.90
9385;DHT22;4732;49.340;10.886;2024-03-22T16:41:51;15.20;99.90
9385;DHT22;4732;49.340;10.886;2024-03-22T16:44:18;15.20;99.90
9385;DHT22;4732;49.340;10.886;2024-03-22T16:46:43;15.20;99.90
9385;DHT22;4732;49.340;10.886;2024-03-22T16:49:09;15.10;99.90
9385;DHT22;4732;49.340;10.886;2024-03-22T16:51:34;15.20;99.90
9385;DHT22;4732;49.340;10.886;2024-03-22T16:54:00;15.10;99.90
9385;DHT22;4732;49.340;10.886;2024-03-22T16:56:26;15.00;99.90
9385;DHT22;4732;49.340;10.886;2024-03-22T16:58:52;15.00;99.90
9385;DHT22;4732;49.340;10.886;2024-03-22T17:01:18;15.00;99.90
9385;DHT22;4732;49.340;10.886;2024-03-22T17:03:44;14.90;99.90
9385;DHT22;4732;49.340;10.886;2024-03-22T17:06:10;14.80;99.90
9385;DHT22;4732;49.340;10.886;2024-03-22T17:08:37;14.80;99.90
9385;DHT22;4732;49.340;10.886;2024-03-22T17:11:04;14.80;99.90
9385;DHT22;4732;49.340;10.886;2024-03-22T17:13:30;14.80;99.90
9385;DHT22;4732;49.340;10.886;2024-03-22T17:15:55;14.70;99.90
9385;DHT22;4732;49.340;10.886;2024-03-22T17:18:22;14.60;99.90
9385;DHT22;4732;49.340;10.886;2024-03-22T17:20:48;14.50;99.90
9385;DHT22;4732;49.340;10.886;2024-03-22T17:23:13;14.40;99.90
9385;DHT22;4732;49.340;10.886;2024-03-22T17:25:40;14.40;99.90
9385;DHT22;4732;49.340;10.886;2024-03-22T17:28:06;14.30;99.90
9385;DHT22;4732;49.340;10.886;2024-03-22T17:30:32;14.20;99.90
9385;DHT22;4732;49.340;10.886;2024-03-22T17:32:58;14.30;99.90
9385;DHT22;4732;49.340;10.886;2024-03-22T17:35:24;14.20;99.90
9385;DHT22;4732;49.340;10.886;2024-03-22T17:37:49;14.20;99.90
9385;DHT22;4732;49.340;10.886;2024-03-22T17:40:15;14.10;99.90
9385;DHT22;4732;49.340;10.886;2024-03-22T17:42:41;14.00;99.90
9385;DHT22;4732;49.340;10.886;2024-03-22T17:45:07;13.90;99.90
9385;DHT22;4732;49.340;10.886;2024-03-22T17:47:33;13.80;99.90
9385;DHT22;4732;49.340;10.886;2024-03-22T17:49:59;13.70;99.90
9385;DHT22;4732;49.340;10.886;2024-03-22T17:52:29;13.80;99.90
9385;DHT22;4732;49.340;10.886;2024-03-22T17:54:54;13.60;99.90
9385;DHT22;4732;49.340;10.886;2024-03-22T17:57:20;13.70;99.90
9385;DHT22;4732;49.340;10.886;2024-03-22T17:59:46;13.70;99.90
9385;DHT22;4732;49.340;10.886;2024-03-22T18:02:11;13.60;99.90
9385;DHT22;4732;49.340;10.886;2024-03-22T18:04:37;13.40;99.90
9385;DHT22;4732;49.340;10.886;2024-03-22T18:07:02;13.30;99.90
9385;DHT22;4732;49.340;10.886;2024-03-22T18:09:28;13.40;99.90
9385;DHT22;4732;49.340;10.886;2024-03-22T18:11:54;13.40;99.90
9385;DHT22;4732;49.340;10.886;2024-03-22T18:14:19;13.40;99.90
9385;DHT22;4732;49.340;10.886;2024-03-22T18:16:48;13.30;99.90
9385;DHT22;4732;49.340;10.886;2024-03-22T18:19:16;13.30;99.90
9385;DHT22;4732;49.340;10.886;2024-03-22T18:21:42;13.30;99.90
9385;DHT22;4732;49.340;10.886;2024-03-22T18:24:08;13.20;99.90
9385;DHT22;4732;49.340;10.886;2024-03-22T18:26:33;13.10;99.90
9385;DHT22;4732;49.340;10.886;2024-03-22T18:28:58;13.10;99.90
9385;DHT22;4732;49.340;10.886;2024-03-22T18:31:24;13.00;99.90
9385;DHT22;4732;49.340;10.886;2024-03-22T18:33:49;13.00;99.90
9385;DHT22;4732;49.340;10.886;2024-03-22T18:36:15;13.00;99.90
9385;DHT22;4732;49.340;10.886;2024-03-22T18:38:41;13.10;99.90
9385;DHT22;4732;49.340;10.886;2024-03-22T18:41:06;13.10;99.90
9385;DHT22;4732;49.340;10.886;2024-03-22T18:43:32;13.10;99.90
9385;DHT22;4732;49.340;10.886;2024-03-22T18:46:00;13.10;99.90
9385;DHT22;4732;49.340;10.886;2024-03-22T18:48:26;13.10;99.90
9385;DHT22;4732;49.340;10.886;2024-03-22T18:50:52;13.10;99.90
9385;DHT22;4732;49.340;10.886;2024-03-22T18:53:20;13.10;99.90
9385;DHT22;4732;49.340;10.886;2024-03-22T18:55:46;13.20;99.90
9385;DHT22;4732;49.340;10.886;2024-03-22T18:58:12;13.20;99.90
9385;DHT22;4732;49.340;10.886;2024-03-22T19:00:37;13.10;99.90
9385;DHT22;4732;49.340;10.886;2024-03-22T19:03:06;13.10;99.90
9385;DHT22;4732;49.340;10.886;2024-03-22T19:05:31;13.10;99.90
9385;DHT22;4732;49.340;10.886;2024-03-22T19:07:57;13.00;99.90
9385;DHT22;4732;49.340;10.886;2024-03-22T19:10:22;12.80;99.90
9385;DHT22;4732;49.340;10.886;2024-03-22T19:12:49;12.70;99.90
9385;DHT22;4732;49.340;10.886;2024-03-22T19:15:15;12.60;99.90
9385;DHT22;4732;49.340;10.886;2024-03-22T19:17:40;12.50;99.90
9385;DHT22;4732;49.340;10.886;2024-03-22T19:20:07;12.40;99.90
9385;DHT22;4732;49.340;10.886;2024-03-22T19:22:35;12.30;99.90
9385;DHT22;4732;49.340;10.886;2024-03-22T19:25:00;12.40;99.90
9385;DHT22;4732;49.340;10.886;2024-03-22T19:27:26;12.30;99.90
9385;DHT22;4732;49.340;10.886;2024-03-22T19:29:51;12.30;99.90
9385;DHT22;4732;49.340;10.886;2024-03-22T19:32:17;12.20;99.90
9385;DHT22;4732;49.340;10.886;2024-03-22T19:34:43;12.20;99.90
9385;DHT22;4732;49.340;10.886;2024-03-22T19:37:08;12.10;99.90
9385;DHT22;4732;49.340;10.886;2024-03-22T19:39:35;12.10;99.90
9385;DHT22;4732;49.340;10.886;2024-03-22T19:42:01;12.10;99.90
9385;DHT22;4732;49.340;10.886;2024-03-22T19:44:27;12.10;99.90
9385;DHT22;4732;49.340;10.886;2024-03-22T19:46:52;12.10;99.90
9385;DHT22;4732;49.340;10.886;2024-03-22T19:49:18;12.00;99.90
9385;DHT22;4732;49.340;10.886;2024-03-22T19:51:43;12.00;99.90
9385;DHT22;4732;49.340;10.886;2024-03-22T19:54:09;11.90;99.90
9385;DHT22;4732;49.340;10.886;2024-03-22T19:56:34;11.80;99.90
9385;DHT22;4732;49.340;10.886;2024-03-22T19:59:00;11.80;99.90
9385;DHT22;4732;49.340;10.886;2024-03-22T20:01:25;11.90;99.90
9385;DHT22;4732;49.340;10.886;2024-03-22T20:03:51;11.80;99.90
9385;DHT22;4732;49.340;10.886;2024-03-22T20:06:16;11.90;99.90
9385;DHT22;4732;49.340;10.886;2024-03-22T20:08:42;11.80;99.90
9385;DHT22;4732;49.340;10.886;2024-03-22T20:11:07;11.80;99.90
9385;DHT22;4732;49.340;10.886;2024-03-22T20:13:33;11.80;99.90
9385;DHT22;4732;49.340;10.886;2024-03-22T20:15:58;11.80;99.90
9385;DHT22;4732;49.340;10.886;2024-03-22T20:18:24;11.70;99.90
9385;DHT22;4732;49.340;10.886;2024-03-22T20:20:50;11.70;99.90
9385;DHT22;4732;49.340;10.886;2024-03-22T20:23:16;11.70;99.90
9385;DHT22;4732;49.340;10.886;2024-03-22T20:25:42;11.60;99.90
9385;DHT22;4732;49.340;10.886;2024-03-22T20:28:09;11.60;99.90
9385;DHT22;4732;49.340;10.886;2024-03-22T20:30:34;11.60;99.90
9385;DHT22;4732;49.340;10.886;2024-03-22T20:33:00;11.40;99.90
9385;DHT22;4732;49.340;10.886;2024-03-22T20:35:26;11.50;99.90
